Time;durP1;ratioP1;P1;durP2;ratioP2;P2;SDS_P1;SDS_P2;PMS_P1;PMS_P2;Temp;Humidity;BMP_temperature;BMP_pressure;BME280_temperature;BME280_humidity;BME280_pressure;Samples;Min_cycle;Max_cycle;Signal;HPM_P1;HPM_P2
2023/07/08 00:00:35;;;;;;;15.02;13.43;;;;;;;;;;5050062;28;20292;-62
2023/07/08 00:03:01;;;;;;;13.00;11.90;;;;;;;;;;5049927;28;20230;-62
2023/07/08 00:05:28;;;;;;;13.82;12.48;;;;;;;;;;5050433;28;20202;-62
2023/07/08 00:07:54;;;;;;;15.38;12.80;;;;;;;;;;5050155;28;20203;-61
2023/07/08 00:10:22;;;;;;;15.18;13.75;;;;;;;;;;5050454;28;20199;-63
2023/07/08 00:12:50;;;;;;;13.68;12.45;;;;;;;;;;5049694;28;20766;-61
2023/07/08 00:15:17;;;;;;;14.40;13.00;;;;;;;;;;5050475;28;20278;-62
2023/07/08 00:17:44;;;;;;;14.05;12.82;;;;;;;;;;5049433;28;20227;-63
2023/07/08 00:20:15;;;;;;;13.70;12.43;;;;;;;;;;5049439;28;20266;-62
2023/07/08 00:22:42;;;;;;;14.77;13.45;;;;;;;;;;5049067;28;20645;-63
2023/07/08 00:25:09;;;;;;;15.50;13.93;;;;;;;;;;5049925;28;20208;-62
2023/07/08 00:27:35;;;;;;;13.55;12.25;;;;;;;;;;5049449;28;20199;-63
2023/07/08 00:30:11;;;;;;;14.73;13.25;;;;;;;;;;5049728;28;20341;-62
2023/07/08 00:32:41;;;;;;;12.43;11.32;;;;;;;;;;5049420;28;20230;-63
2023/07/08 00:35:08;;;;;;;13.88;12.13;;;;;;;;;;5049738;28;20364;-64
2023/07/08 00:37:34;;;;;;;13.77;12.48;;;;;;;;;;5048258;28;20234;-63
2023/07/08 00:40:01;;;;;;;14.30;12.20;;;;;;;;;;5048766;28;20207;-63
2023/07/08 00:42:27;;;;;;;14.52;12.40;;;;;;;;;;5048474;28;20681;-63
2023/07/08 00:44:53;;;;;;;14.27;13.18;;;;;;;;;;5048486;28;20284;-63
2023/07/08 00:47:23;;;;;;;13.80;12.65;;;;;;;;;;5049580;28;20223;-65
2023/07/08 00:49:52;;;;;;;13.27;12.13;;;;;;;;;;5048990;28;20253;-64
2023/07/08 00:52:19;;;;;;;11.88;11.02;;;;;;;;;;5049619;28;20221;-63
2023/07/08 00:54:46;;;;;;;14.85;12.93;;;;;;;;;;5048944;28;20223;-64
2023/07/08 00:57:12;;;;;;;14.02;12.48;;;;;;;;;;5049248;28;20231;-63
2023/07/08 00:59:41;;;;;;;13.98;12.63;;;;;;;;;;5047730;28;20308;-62
2023/07/08 01:02:09;;;;;;;12.70;11.68;;;;;;;;;;5047601;28;20265;-63
2023/07/08 01:04:42;;;;;;;12.80;11.63;;;;;;;;;;5047037;28;20273;-63
2023/07/08 01:07:09;;;;;;;13.50;12.25;;;;;;;;;;5047010;28;20734;-63
2023/07/08 01:09:38;;;;;;;15.48;11.73;;;;;;;;;;5047377;28;20239;-63
2023/07/08 01:12:06;;;;;;;12.00;11.00;;;;;;;;;;5047598;28;20199;-62
2023/07/08 01:14:34;;;;;;;13.50;11.95;;;;;;;;;;5047240;28;20198;-63
2023/07/08 01:17:01;;;;;;;12.00;11.05;;;;;;;;;;5049006;28;20199;-63
2023/07/08 01:19:32;;;;;;;11.88;10.73;;;;;;;;;;5048032;28;20589;-63
2023/07/08 01:22:01;;;;;;;12.27;11.13;;;;;;;;;;5048232;28;20258;-63
2023/07/08 01:24:28;;;;;;;11.48;10.57;;;;;;;;;;5048076;28;20223;-61
2023/07/08 01:26:54;;;;;;;11.75;10.75;;;;;;;;;;5048472;28;20203;-62
2023/07/08 01:29:21;;;;;;;11.43;10.38;;;;;;;;;;5048373;28;20300;-63
2023/07/08 01:31:48;;;;;;;11.45;10.55;;;;;;;;;;5048436;28;20685;-63
2023/07/08 01:34:15;;;;;;;11.38;10.35;;;;;;;;;;5047608;28;20592;-62
2023/07/08 01:36:44;;;;;;;12.63;11.35;;;;;;;;;;5048364;28;20211;-62
2023/07/08 01:39:13;;;;;;;12.90;11.90;;;;;;;;;;5048109;28;20218;-62
2023/07/08 01:41:40;;;;;;;12.07;11.05;;;;;;;;;;5047924;28;20230;-64
2023/07/08 01:44:19;;;;;;;12.48;11.30;;;;;;;;;;5048382;28;20296;-63
2023/07/08 01:46:45;;;;;;;12.15;11.00;;;;;;;;;;5047917;28;20268;-63
2023/07/08 01:49:12;;;;;;;11.90;10.80;;;;;;;;;;5048792;28;20526;-62
2023/07/08 01:51:38;;;;;;;11.43;10.35;;;;;;;;;;5047617;28;20235;-62
2023/07/08 01:54:05;;;;;;;12.90;10.95;;;;;;;;;;5048129;28;20230;-63
2023/07/08 01:56:33;;;;;;;12.68;11.32;;;;;;;;;;5047518;28;21725;-64
2023/07/08 01:59:00;;;;;;;12.13;10.98;;;;;;;;;;5048153;28;20264;-63
2023/07/08 02:01:26;;;;;;;13.48;10.80;;;;;;;;;;5047514;28;20211;-63
2023/07/08 02:03:53;;;;;;;12.15;10.43;;;;;;;;;;5047955;28;20652;-62
2023/07/08 02:06:19;;;;;;;11.27;10.38;;;;;;;;;;5047756;28;20230;-63
2023/07/08 02:08:46;;;;;;;14.13;10.18;;;;;;;;;;5047502;28;20203;-64
2023/07/08 02:11:12;;;;;;;12.25;10.68;;;;;;;;;;5047556;28;20882;-63
2023/07/08 02:13:40;;;;;;;12.18;10.95;;;;;;;;;;5047925;28;20195;-63
2023/07/08 02:16:07;;;;;;;11.52;10.50;;;;;;;;;;5047740;28;20226;-63
2023/07/08 02:18:33;;;;;;;15.40;10.48;;;;;;;;;;5047455;28;20264;-63
2023/07/08 02:21:00;;;;;;;12.60;9.70;;;;;;;;;;5046751;28;20293;-63
2023/07/08 02:23:27;;;;;;;13.20;10.68;;;;;;;;;;5047788;28;20202;-62
2023/07/08 02:25:53;;;;;;;12.82;11.13;;;;;;;;;;5047180;28;20222;-64
2023/07/08 02:28:20;;;;;;;13.35;10.63;;;;;;;;;;5047826;28;20214;-64
2023/07/08 02:30:48;;;;;;;10.90;9.80;;;;;;;;;;5046603;28;20305;-63
2023/07/08 02:33:17;;;;;;;10.85;10.05;;;;;;;;;;5047181;28;20210;-65
2023/07/08 02:35:43;;;;;;;11.90;10.77;;;;;;;;;;5046997;28;20290;-63
2023/07/08 02:38:10;;;;;;;10.57;9.57;;;;;;;;;;5046744;28;20264;-63
2023/07/08 02:40:36;;;;;;;11.43;9.70;;;;;;;;;;5046087;28;20253;-63
2023/07/08 02:43:03;;;;;;;11.43;10.35;;;;;;;;;;5046330;28;20634;-62
2023/07/08 02:45:29;;;;;;;10.18;9.27;;;;;;;;;;5046439;28;20313;-63
2023/07/08 02:47:57;;;;;;;9.80;9.00;;;;;;;;;;5047551;28;20227;-65
2023/07/08 02:50:24;;;;;;;10.50;9.32;;;;;;;;;;5046790;28;20198;-62
2023/07/08 02:52:51;;;;;;;11.30;10.50;;;;;;;;;;5046416;28;20292;-62
2023/07/08 02:55:17;;;;;;;11.20;10.15;;;;;;;;;;5045008;28;20195;-64
2023/07/08 02:57:44;;;;;;;11.27;9.93;;;;;;;;;;5044974;28;20261;-64
2023/07/08 03:00:11;;;;;;;12.30;9.65;;;;;;;;;;5044222;28;20268;-64
2023/07/08 03:02:37;;;;;;;16.02;10.88;;;;;;;;;;5045726;28;20206;-64
2023/07/08 03:05:06;;;;;;;11.55;10.60;;;;;;;;;;5045520;28;20207;-65
2023/07/08 03:07:33;;;;;;;11.90;10.48;;;;;;;;;;5045251;28;20199;-64
2023/07/08 03:09:59;;;;;;;11.40;10.40;;;;;;;;;;5047220;28;20202;-62
2023/07/08 03:12:25;;;;;;;12.57;11.30;;;;;;;;;;5047157;28;20248;-62
2023/07/08 03:14:52;;;;;;;11.18;10.30;;;;;;;;;;5048050;28;20220;-65
2023/07/08 03:17:19;;;;;;;11.27;10.07;;;;;;;;;;5046789;28;20222;-65
2023/07/08 03:19:45;;;;;;;10.95;9.82;;;;;;;;;;5047095;28;20677;-65
2023/07/08 03:22:13;;;;;;;11.40;9.98;;;;;;;;;;5046484;28;20199;-64
2023/07/08 03:24:45;;;;;;;9.55;8.98;;;;;;;;;;5047056;28;20708;-65
2023/07/08 03:27:12;;;;;;;11.20;10.15;;;;;;;;;;5045600;28;20614;-63
2023/07/08 03:29:38;;;;;;;18.60;9.98;;;;;;;;;;5046958;28;20687;-65
2023/07/08 03:32:05;;;;;;;12.05;9.23;;;;;;;;;;5046487;28;20758;-64
2023/07/08 03:34:32;;;;;;;11.75;9.15;;;;;;;;;;5046751;28;20198;-63
2023/07/08 03:36:58;;;;;;;9.40;8.60;;;;;;;;;;5046427;28;20246;-64
2023/07/08 03:39:26;;;;;;;8.48;7.70;;;;;;;;;;5046822;28;20199;-64
2023/07/08 03:41:53;;;;;;;8.00;7.20;;;;;;;;;;5046759;28;20268;-63
2023/07/08 03:44:19;;;;;;;6.25;5.72;;;;;;;;;;5046676;28;20223;-64
2023/07/08 03:46:47;;;;;;;7.10;6.50;;;;;;;;;;5046457;28;20207;-64
2023/07/08 03:49:14;;;;;;;18.38;6.63;;;;;;;;;;5046333;28;20191;-64
2023/07/08 03:51:42;;;;;;;7.55;5.45;;;;;;;;;;5046319;28;20242;-64
2023/07/08 03:54:11;;;;;;;7.32;5.90;;;;;;;;;;5046665;28;20304;-64
2023/07/08 03:56:39;;;;;;;6.82;6.22;;;;;;;;;;5046113;28;20264;-64
2023/07/08 03:59:05;;;;;;;8.48;6.07;;;;;;;;;;5046568;28;20238;-65
2023/07/08 04:01:32;;;;;;;6.65;6.20;;;;;;;;;;5045910;28;20656;-65
2023/07/08 04:03:59;;;;;;;6.40;5.88;;;;;;;;;;5046520;28;20256;-64
2023/07/08 04:06:26;;;;;;;6.28;5.68;;;;;;;;;;5046660;28;20230;-64
2023/07/08 04:08:53;;;;;;;8.43;6.15;;;;;;;;;;5045992;28;20230;-66
2023/07/08 04:11:20;;;;;;;6.57;6.05;;;;;;;;;;5046181;28;20237;-64
2023/07/08 04:13:48;;;;;;;6.57;6.07;;;;;;;;;;5046390;28;20304;-65
2023/07/08 04:16:20;;;;;;;8.75;6.20;;;;;;;;;;5045867;28;21497;-64
2023/07/08 04:18:47;;;;;;;6.97;6.32;;;;;;;;;;5046009;28;20231;-65
2023/07/08 04:21:13;;;;;;;7.57;5.88;;;;;;;;;;5045639;28;20223;-64
2023/07/08 04:23:40;;;;;;;6.05;5.50;;;;;;;;;;5046077;28;20701;-65
2023/07/08 04:26:06;;;;;;;7.68;6.88;;;;;;;;;;5044889;28;20707;-65
2023/07/08 04:28:32;;;;;;;6.18;5.65;;;;;;;;;;5046172;28;20242;-64
2023/07/08 04:31:00;;;;;;;6.55;5.57;;;;;;;;;;5045937;28;20204;-63
2023/07/08 04:33:27;;;;;;;6.85;6.35;;;;;;;;;;5045875;28;20290;-63
2023/07/08 04:35:54;;;;;;;8.18;7.30;;;;;;;;;;5045946;28;20195;-65
2023/07/08 04:38:22;;;;;;;7.97;6.07;;;;;;;;;;5044686;28;20298;-64
2023/07/08 04:40:48;;;;;;;6.68;5.95;;;;;;;;;;5045910;28;20800;-66
2023/07/08 04:43:15;;;;;;;6.47;5.90;;;;;;;;;;5048945;28;20207;-64
2023/07/08 04:45:43;;;;;;;6.82;6.13;;;;;;;;;;5049135;28;20234;-64
2023/07/08 04:48:13;;;;;;;5.97;5.47;;;;;;;;;;5049420;28;20272;-64
2023/07/08 04:50:40;;;;;;;6.20;5.65;;;;;;;;;;5049247;28;20758;-65
2023/07/08 04:53:07;;;;;;;6.80;6.20;;;;;;;;;;5049165;28;20242;-64
2023/07/08 04:55:33;;;;;;;7.13;5.85;;;;;;;;;;5049421;28;20203;-64
2023/07/08 04:58:01;;;;;;;6.72;5.88;;;;;;;;;;5049224;28;20199;-64
2023/07/08 05:00:28;;;;;;;5.88;5.35;;;;;;;;;;5048996;28;20700;-63
2023/07/08 05:02:54;;;;;;;8.45;7.07;;;;;;;;;;5048080;28;20284;-64
2023/07/08 05:05:22;;;;;;;6.85;6.25;;;;;;;;;;5047054;28;20306;-65
2023/07/08 05:07:49;;;;;;;6.75;5.82;;;;;;;;;;5047104;28;20656;-64
2023/07/08 05:10:15;;;;;;;7.63;6.90;;;;;;;;;;5047375;28;20228;-64
2023/07/08 05:12:42;;;;;;;7.05;6.47;;;;;;;;;;5047873;28;20207;-65
2023/07/08 05:15:09;;;;;;;6.53;6.10;;;;;;;;;;5047666;28;20643;-64
2023/07/08 05:17:35;;;;;;;6.35;5.95;;;;;;;;;;5048648;28;20648;-64
2023/07/08 05:20:03;;;;;;;6.20;5.75;;;;;;;;;;5048175;28;20746;-63
2023/07/08 05:22:31;;;;;;;6.05;5.60;;;;;;;;;;5048511;28;20253;-63
2023/07/08 05:24:58;;;;;;;6.82;6.15;;;;;;;;;;5049410;28;20233;-65
2023/07/08 05:27:24;;;;;;;7.85;5.53;;;;;;;;;;5048419;28;20286;-65
2023/07/08 05:29:51;;;;;;;6.57;6.13;;;;;;;;;;5048569;28;20625;-63
2023/07/08 05:32:18;;;;;;;7.10;6.25;;;;;;;;;;5048223;28;20669;-63
2023/07/08 05:34:44;;;;;;;6.72;5.95;;;;;;;;;;5048761;28;20195;-63
2023/07/08 05:37:11;;;;;;;6.55;5.90;;;;;;;;;;5048741;28;20203;-64
2023/07/08 05:39:38;;;;;;;6.72;6.25;;;;;;;;;;5048586;28;20215;-64
2023/07/08 05:42:05;;;;;;;6.70;6.10;;;;;;;;;;5048010;28;22158;-64
2023/07/08 05:44:32;;;;;;;6.55;5.95;;;;;;;;;;5047589;28;20211;-65
2023/07/08 05:46:58;;;;;;;6.82;6.32;;;;;;;;;;5048589;28;20231;-64
2023/07/08 05:49:24;;;;;;;10.20;6.32;;;;;;;;;;5048767;28;20567;-64
2023/07/08 05:51:51;;;;;;;7.07;6.15;;;;;;;;;;5047484;28;20223;-64
2023/07/08 05:54:17;;;;;;;6.55;5.90;;;;;;;;;;5048511;28;20230;-65
2023/07/08 05:56:45;;;;;;;7.00;6.50;;;;;;;;;;5047913;28;20239;-64
2023/07/08 05:59:12;;;;;;;6.60;6.10;;;;;;;;;;5048754;28;20325;-63
2023/07/08 06:01:38;;;;;;;7.43;6.78;;;;;;;;;;5047783;28;20310;-65
2023/07/08 06:04:05;;;;;;;7.70;6.90;;;;;;;;;;5047732;28;20214;-65
2023/07/08 06:06:31;;;;;;;6.93;6.38;;;;;;;;;;5047670;28;20219;-64
2023/07/08 06:08:58;;;;;;;7.80;7.30;;;;;;;;;;5048508;28;20584;-65
2023/07/08 06:11:24;;;;;;;8.50;7.53;;;;;;;;;;5047619;28;20198;-64
2023/07/08 06:13:52;;;;;;;7.38;6.80;;;;;;;;;;5048222;28;20206;-64
2023/07/08 06:16:18;;;;;;;7.45;6.90;;;;;;;;;;5047122;28;20268;-64
2023/07/08 06:18:45;;;;;;;8.60;6.88;;;;;;;;;;5047917;28;20203;-65
2023/07/08 06:21:11;;;;;;;8.13;7.57;;;;;;;;;;5047235;28;20227;-63
2023/07/08 06:23:38;;;;;;;7.05;6.43;;;;;;;;;;5047829;28;20762;-65
2023/07/08 06:26:04;;;;;;;6.40;5.93;;;;;;;;;;5047179;28;20265;-66
2023/07/08 06:28:31;;;;;;;7.22;5.65;;;;;;;;;;5047468;28;20618;-64
2023/07/08 06:30:58;;;;;;;6.68;6.03;;;;;;;;;;5047520;28;20265;-65
2023/07/08 06:33:25;;;;;;;6.20;5.78;;;;;;;;;;5047324;28;20256;-66
2023/07/08 06:35:51;;;;;;;6.68;6.03;;;;;;;;;;5047172;28;20227;-64
2023/07/08 06:38:18;;;;;;;6.55;6.00;;;;;;;;;;5046408;28;20230;-65
2023/07/08 06:40:44;;;;;;;5.72;5.40;;;;;;;;;;5046735;28;20842;-65
2023/07/08 06:43:11;;;;;;;9.10;5.22;;;;;;;;;;5046475;28;20754;-64
2023/07/08 06:45:37;;;;;;;7.13;4.88;;;;;;;;;;5046699;28;20296;-65
2023/07/08 06:48:05;;;;;;;6.20;5.80;;;;;;;;;;5047053;28;20211;-63
2023/07/08 06:50:32;;;;;;;5.45;5.05;;;;;;;;;;5047525;28;20233;-64
2023/07/08 06:52:58;;;;;;;6.65;5.50;;;;;;;;;;5046386;28;20233;-64
2023/07/08 06:55:25;;;;;;;6.78;6.18;;;;;;;;;;5045693;28;20223;-64
2023/07/08 06:57:51;;;;;;;7.68;5.00;;;;;;;;;;5044775;28;20203;-64
2023/07/08 07:00:18;;;;;;;6.53;4.88;;;;;;;;;;5045513;28;20199;-64
2023/07/08 07:02:44;;;;;;;6.00;5.50;;;;;;;;;;5044835;28;20797;-66
2023/07/08 07:05:12;;;;;;;5.53;5.10;;;;;;;;;;5044668;28;20317;-65
2023/07/08 07:07:38;;;;;;;6.78;6.13;;;;;;;;;;5044947;28;20203;-64
2023/07/08 07:10:05;;;;;;;6.05;5.50;;;;;;;;;;5046670;28;20661;-64
2023/07/08 07:12:32;;;;;;;10.43;5.38;;;;;;;;;;5046604;28;20210;-64
2023/07/08 07:14:58;;;;;;;10.40;5.35;;;;;;;;;;5047605;28;20638;-64
2023/07/08 07:17:26;;;;;;;6.20;5.70;;;;;;;;;;5046013;28;20207;-63
2023/07/08 07:19:52;;;;;;;6.03;5.57;;;;;;;;;;5046507;28;20211;-64
2023/07/08 07:22:20;;;;;;;6.00;5.50;;;;;;;;;;5046377;28;20226;-65
2023/07/08 07:24:48;;;;;;;5.63;5.00;;;;;;;;;;5046694;28;20211;-64
2023/07/08 07:27:15;;;;;;;7.28;5.70;;;;;;;;;;5046395;28;20219;-65
2023/07/08 07:29:42;;;;;;;6.20;5.68;;;;;;;;;;5047047;28;20219;-64
2023/07/08 07:32:09;;;;;;;8.27;6.00;;;;;;;;;;5045809;28;20238;-63
2023/07/08 07:34:35;;;;;;;5.53;5.22;;;;;;;;;;5046530;28;20195;-64
2023/07/08 07:37:02;;;;;;;6.07;5.05;;;;;;;;;;5046600;28;20199;-64
2023/07/08 07:39:30;;;;;;;6.28;5.70;;;;;;;;;;5046717;28;20195;-65
2023/07/08 07:41:56;;;;;;;5.82;5.43;;;;;;;;;;5046314;28;20198;-65
2023/07/08 07:44:24;;;;;;;6.15;5.65;;;;;;;;;;5046869;28;20203;-65
2023/07/08 07:46:50;;;;;;;5.63;5.15;;;;;;;;;;5046303;28;20222;-65
2023/07/08 07:49:17;;;;;;;6.32;4.60;;;;;;;;;;5046651;28;20231;-65
2023/07/08 07:51:43;;;;;;;6.03;4.85;;;;;;;;;;5046141;28;20312;-65
2023/07/08 07:54:10;;;;;;;5.18;4.88;;;;;;;;;;5046608;28;20215;-64
2023/07/08 07:56:38;;;;;;;4.80;4.60;;;;;;;;;;5046374;28;20199;-64
2023/07/08 07:59:05;;;;;;;5.22;4.97;;;;;;;;;;5046717;28;20207;-64
2023/07/08 08:01:31;;;;;;;4.93;4.57;;;;;;;;;;5046263;28;20234;-64
2023/07/08 08:03:58;;;;;;;5.25;4.80;;;;;;;;;;5046152;28;20238;-63
2023/07/08 08:06:24;;;;;;;5.25;4.85;;;;;;;;;;5045934;28;21610;-64
2023/07/08 08:08:51;;;;;;;5.13;4.82;;;;;;;;;;5046412;28;20630;-64
2023/07/08 08:11:18;;;;;;;5.35;5.05;;;;;;;;;;5045794;28;20274;-64
2023/07/08 08:13:45;;;;;;;5.45;5.05;;;;;;;;;;5046303;28;20304;-64
2023/07/08 08:16:12;;;;;;;5.38;5.05;;;;;;;;;;5048116;28;20284;-64
2023/07/08 08:18:38;;;;;;;7.53;5.60;;;;;;;;;;5049803;28;20274;-63
2023/07/08 08:21:05;;;;;;;5.18;4.88;;;;;;;;;;5049834;28;20621;-64
2023/07/08 08:23:31;;;;;;;5.72;4.93;;;;;;;;;;5050042;28;20640;-64
2023/07/08 08:25:58;;;;;;;6.05;5.55;;;;;;;;;;5049862;28;20234;-64
2023/07/08 08:28:25;;;;;;;5.72;5.25;;;;;;;;;;5050015;28;20198;-64
2023/07/08 08:30:53;;;;;;;5.32;5.03;;;;;;;;;;5049813;28;20624;-64
2023/07/08 08:33:19;;;;;;;5.72;5.43;;;;;;;;;;5050630;28;20206;-65
2023/07/08 08:35:46;;;;;;;6.05;5.15;;;;;;;;;;5048213;28;20199;-64
2023/07/08 08:38:12;;;;;;;5.78;5.20;;;;;;;;;;5049341;28;20593;-64
2023/07/08 08:40:40;;;;;;;5.53;5.20;;;;;;;;;;5048093;28;20687;-63
2023/07/08 08:43:08;;;;;;;6.00;5.47;;;;;;;;;;5049681;28;20503;-62
2023/07/08 08:45:38;;;;;;;5.68;5.38;;;;;;;;;;5048375;28;20644;-65
2023/07/08 08:48:10;;;;;;;5.35;5.05;;;;;;;;;;5049340;28;20207;-65
2023/07/08 08:50:43;;;;;;;5.65;5.15;;;;;;;;;;5048575;28;20681;-64
2023/07/08 08:53:12;;;;;;;6.47;5.88;;;;;;;;;;5049187;28;20195;-63
2023/07/08 08:55:39;;;;;;;6.85;5.60;;;;;;;;;;5049793;28;20199;-65
2023/07/08 08:58:11;;;;;;;6.28;5.75;;;;;;;;;;5048857;28;20202;-63
2023/07/08 09:00:43;;;;;;;5.95;5.45;;;;;;;;;;5047930;28;20269;-64
2023/07/08 09:03:13;;;;;;;5.40;5.10;;;;;;;;;;5047805;28;20199;-62
2023/07/08 09:05:39;;;;;;;6.07;5.18;;;;;;;;;;5048044;28;20380;-64
2023/07/08 09:08:11;;;;;;;5.35;4.97;;;;;;;;;;5047676;28;20273;-62
2023/07/08 09:10:43;;;;;;;6.05;5.40;;;;;;;;;;5048007;28;20203;-64
2023/07/08 09:13:13;;;;;;;5.93;5.53;;;;;;;;;;5047817;28;20631;-64
2023/07/08 09:15:39;;;;;;;6.18;5.40;;;;;;;;;;5048704;28;20663;-65
2023/07/08 09:18:26;;;;;;;5.22;4.97;;;;;;;;;;5049149;28;20239;-63
2023/07/08 09:20:54;;;;;;;5.63;5.22;;;;;;;;;;5048396;28;20262;-65
2023/07/08 09:23:22;;;;;;;5.57;4.78;;;;;;;;;;5049319;28;20241;-64
2023/07/08 09:25:52;;;;;;;5.68;5.07;;;;;;;;;;5048838;28;20259;-65
2023/07/08 09:28:18;;;;;;;5.78;5.28;;;;;;;;;;5048844;28;20222;-65
2023/07/08 09:30:46;;;;;;;5.97;4.55;;;;;;;;;;5048238;28;20779;-63
2023/07/08 09:33:13;;;;;;;5.35;5.00;;;;;;;;;;5049537;28;20304;-65
2023/07/08 09:35:41;;;;;;;5.85;5.13;;;;;;;;;;5048502;28;20211;-67
2023/07/08 09:38:09;;;;;;;5.88;5.47;;;;;;;;;;5049516;28;20246;-65
2023/07/08 09:40:35;;;;;;;5.30;4.90;;;;;;;;;;5047876;28;20750;-64
2023/07/08 09:43:03;;;;;;;5.15;4.85;;;;;;;;;;5048933;28;20677;-65
2023/07/08 09:45:40;;;;;;;5.50;5.20;;;;;;;;;;5048513;28;20207;-65
2023/07/08 09:48:15;;;;;;;5.35;5.05;;;;;;;;;;5048390;28;20206;-65
2023/07/08 09:50:44;;;;;;;6.28;4.32;;;;;;;;;;5047468;28;20226;-63
2023/07/08 09:53:14;;;;;;;5.25;4.85;;;;;;;;;;5048522;28;20226;-65
2023/07/08 09:55:40;;;;;;;6.75;5.22;;;;;;;;;;5048744;28;20211;-65
2023/07/08 09:58:09;;;;;;;5.88;5.43;;;;;;;;;;5047689;28;20712;-65
2023/07/08 10:00:39;;;;;;;5.13;4.38;;;;;;;;;;5047954;28;20211;-65
2023/07/08 10:03:09;;;;;;;5.70;5.40;;;;;;;;;;5047541;28;20207;-64
2023/07/08 10:05:37;;;;;;;6.68;4.88;;;;;;;;;;5048595;28;20207;-64
2023/07/08 10:08:09;;;;;;;5.25;4.82;;;;;;;;;;5047937;28;20270;-65
2023/07/08 10:10:39;;;;;;;5.85;5.43;;;;;;;;;;5048028;28;20682;-65
2023/07/08 10:13:10;;;;;;;5.35;4.93;;;;;;;;;;5047657;28;20623;-66
2023/07/08 10:15:38;;;;;;;5.07;4.78;;;;;;;;;;5048108;28;20207;-65
2023/07/08 10:18:07;;;;;;;5.00;4.70;;;;;;;;;;5048298;28;20199;-64
2023/07/08 10:20:38;;;;;;;5.55;5.15;;;;;;;;;;5047111;28;20238;-66
2023/07/08 10:23:09;;;;;;;6.47;5.20;;;;;;;;;;5048222;28;20249;-64
2023/07/08 10:25:44;;;;;;;5.93;5.45;;;;;;;;;;5047720;28;20211;-64
2023/07/08 10:28:20;;;;;;;5.55;5.15;;;;;;;;;;5047890;28;20198;-64
2023/07/08 10:31:03;;;;;;;5.05;4.78;;;;;;;;;;5047117;28;20238;-65
2023/07/08 10:33:39;;;;;;;5.78;5.30;;;;;;;;;;5047468;28;20203;-64
2023/07/08 10:36:13;;;;;;;6.07;5.68;;;;;;;;;;5047924;28;20629;-62
2023/07/08 10:38:50;;;;;;;5.35;4.90;;;;;;;;;;5045138;28;20289;-64
2023/07/08 10:41:21;;;;;;;4.80;4.50;;;;;;;;;;5047038;28;20206;-65
2023/07/08 10:43:52;;;;;;;4.93;4.63;;;;;;;;;;5046402;28;20238;-62
2023/07/08 10:46:26;;;;;;;4.75;4.45;;;;;;;;;;5046802;28;20241;-65
2023/07/08 10:49:11;;;;;;;4.90;4.70;;;;;;;;;;5047595;28;20245;-65
2023/07/08 10:51:41;;;;;;;5.30;5.00;;;;;;;;;;5047031;28;20254;-66
2023/07/08 10:54:24;;;;;;;5.18;4.78;;;;;;;;;;5047300;28;20689;-65
2023/07/08 10:56:55;;;;;;;5.15;4.75;;;;;;;;;;5047072;28;20257;-65
2023/07/08 10:59:42;;;;;;;4.80;4.50;;;;;;;;;;5047461;28;20199;-65
2023/07/08 11:02:22;;;;;;;5.00;4.60;;;;;;;;;;5045555;28;20487;-65
2023/07/08 11:04:54;;;;;;;5.90;4.90;;;;;;;;;;5045563;28;20273;-64
2023/07/08 11:07:28;;;;;;;5.75;5.28;;;;;;;;;;5045369;28;20254;-64
2023/07/08 11:09:57;;;;;;;5.78;4.28;;;;;;;;;;5045934;28;20265;-64
2023/07/08 11:12:28;;;;;;;4.80;4.60;;;;;;;;;;5045636;28;20268;-66
2023/07/08 11:14:57;;;;;;;4.88;4.40;;;;;;;;;;5045072;28;20677;-65
2023/07/08 11:17:28;;;;;;;4.28;4.00;;;;;;;;;;5046259;28;20237;-64
2023/07/08 11:19:58;;;;;;;5.20;4.70;;;;;;;;;;5046866;28;20203;-65
2023/07/08 11:22:27;;;;;;;5.10;4.70;;;;;;;;;;5046640;28;20211;-64
2023/07/08 11:24:54;;;;;;;5.13;4.82;;;;;;;;;;5047537;28;20237;-65
2023/07/08 11:27:26;;;;;;;6.03;4.47;;;;;;;;;;5046691;28;20318;-65
2023/07/08 11:29:55;;;;;;;4.43;4.13;;;;;;;;;;5046878;28;20294;-66
2023/07/08 11:32:23;;;;;;;5.40;5.03;;;;;;;;;;5046181;28;20252;-64
2023/07/08 11:34:50;;;;;;;4.80;4.38;;;;;;;;;;5046898;28;20226;-64
2023/07/08 11:37:18;;;;;;;4.70;4.43;;;;;;;;;;5046662;28;20195;-65
2023/07/08 11:39:46;;;;;;;4.38;4.18;;;;;;;;;;5046799;28;20197;-65
2023/07/08 11:42:16;;;;;;;5.53;4.90;;;;;;;;;;5046562;28;20225;-63
2023/07/08 11:44:43;;;;;;;4.30;4.10;;;;;;;;;;5046820;28;20219;-66
2023/07/08 11:47:19;;;;;;;4.80;4.50;;;;;;;27.25;nan;95347.97;5046712;28;20914;-65
2023/07/08 11:49:47;;;;;;;4.70;4.18;;;;;;;;;;5046416;28;20221;-64
2023/07/08 11:52:17;;;;;;;3.92;3.63;;;;;;;;;;5050962;28;20245;-65
2023/07/08 11:54:46;;;;;;;4.28;3.97;;;;;;;;;;5050538;28;20246;-64
2023/07/08 11:57:17;;;;;;;4.63;4.22;;;;;;;;;;5051042;28;20198;-64
2023/07/08 11:59:44;;;;;;;6.05;4.07;;;;;;;;;;5050227;28;20702;-67
2023/07/08 12:02:14;;;;;;;6.70;3.92;;;;;;;;;;5050663;28;20223;-66
2023/07/08 12:04:54;;;;;;;5.60;4.13;;;;;;;;;;5050567;28;20222;-65
2023/07/08 12:07:23;;;;;;;4.38;4.07;;;;;;;;;;5050348;28;20256;-66
2023/07/08 12:09:50;;;;;;;3.92;3.63;;;;;;;;;;5050467;28;20210;-65
2023/07/08 12:12:23;;;;;;;4.38;3.53;;;;;;;;;;5050015;28;20229;-66
2023/07/08 12:14:51;;;;;;;4.13;3.88;;;;;;;;;;5050725;28;20242;-66
2023/07/08 12:17:19;;;;;;;4.05;3.75;;;;;;;;;;5049541;28;20685;-65
2023/07/08 12:19:47;;;;;;;3.90;3.70;;;;;;;;;;5050269;28;20257;-66
2023/07/08 12:22:14;;;;;;;4.50;4.20;;;;;;;;;;5048961;28;20195;-64
2023/07/08 12:24:41;;;;;;;4.40;4.10;;;;;;;;;;5050229;28;20215;-65
2023/07/08 12:27:09;;;;;;;3.95;3.70;;;;;;;;;;5049923;28;20285;-66
2023/07/08 12:29:35;;;;;;;3.70;3.40;;;;;;;;;;5050161;28;20242;-65
2023/07/08 12:32:03;;;;;;;3.63;3.20;;;;;;;;;;5050047;28;20207;-64
2023/07/08 12:34:32;;;;;;;4.32;3.55;;;;;;;;;;5050538;28;20195;-65
2023/07/08 12:36:58;;;;;;;4.07;3.85;;;;;;;;;;5049797;28;20699;-65
2023/07/08 12:39:25;;;;;;;3.42;3.13;;;;;;;;;;5048653;28;20225;-64
2023/07/08 12:41:51;;;;;;;3.92;3.45;;;;;;;;;;5049144;28;20231;-66
2023/07/08 12:44:22;;;;;;;3.80;3.50;;;;;;;;;;5049553;28;20231;-66
2023/07/08 12:46:49;;;;;;;3.47;3.25;;;;;;;;;;5048913;28;20227;-66
2023/07/08 12:49:16;;;;;;;3.28;3.08;;;;;;;;;;5050242;28;20226;-65
2023/07/08 12:51:44;;;;;;;4.45;3.60;;;;;;;;;;5049729;28;20229;-64
2023/07/08 12:54:11;;;;;;;3.90;3.63;;;;;;;;;;5050039;28;20215;-66
2023/07/08 12:56:38;;;;;;;5.43;3.05;;;;;;;;;;5048845;28;20235;-66
2023/07/08 12:59:05;;;;;;;3.78;3.58;;;;;;;;;;5050033;28;20207;-63
2023/07/08 13:01:33;;;;;;;4.93;3.55;;;;;;;;;;5046916;28;20431;-64
2023/07/08 13:04:02;;;;;;;3.45;3.13;;;;;;;;;;5048412;28;20306;-64
2023/07/08 13:06:31;;;;;;;3.33;3.13;;;;;;;;;;5047409;28;20230;-65
2023/07/08 13:09:02;;;;;;;3.22;2.92;;;;;;;;;;5047795;28;20258;-63
2023/07/08 13:11:28;;;;;;;3.67;3.33;;;;;;;;;;5048332;28;20203;-65
2023/07/08 13:13:56;;;;;;;6.03;3.20;;;;;;;;;;5048162;28;20223;-64
2023/07/08 13:16:24;;;;;;;6.63;3.13;;;;;;;;;;5048345;28;20207;-65
2023/07/08 13:18:50;;;;;;;2.90;2.70;;;;;;;;;;5049112;28;20322;-63
2023/07/08 13:21:17;;;;;;;4.18;3.88;;;;;;;;;;5048372;28;20230;-66
2023/07/08 13:23:44;;;;;;;3.80;3.60;;;;;;;;;;5049299;28;20256;-65
2023/07/08 13:26:15;;;;;;;4.40;3.47;;;;;;;;;;5049190;28;20234;-64
2023/07/08 13:28:44;;;;;;;3.42;3.22;;;;;;;;;;5048580;28;20382;-65
2023/07/08 13:31:15;;;;;;;8.43;3.53;;;;;;;;;;5048919;28;20202;-64
2023/07/08 13:33:46;;;;;;;5.85;3.55;;;;;;;;;;5048704;28;20226;-65
2023/07/08 13:36:14;;;;;;;3.40;3.10;;;;;;;;;;5049371;28;20292;-65
2023/07/08 13:38:41;;;;;;;3.55;3.28;;;;;;;;;;5048476;28;20234;-64
2023/07/08 13:41:08;;;;;;;3.80;3.50;;;;;;;;;;5045938;28;20217;-66
2023/07/08 13:43:37;;;;;;;4.15;2.92;;;;;;;;;;5048508;28;20715;-64
2023/07/08 13:46:04;;;;;;;3.65;3.10;;;;;;;;;;5048929;28;20218;-65
2023/07/08 13:48:32;;;;;;;3.65;3.00;;;;;;;;;;5048314;28;20310;-62
2023/07/08 13:50:59;;;;;;;3.90;3.47;;;;;;;;;;5048633;28;20268;-65
2023/07/08 13:53:27;;;;;;;5.55;3.28;;;;;;;;;;5048441;28;20230;-64
2023/07/08 13:56:01;;;;;;;4.32;3.22;;;;;;;;;;5048303;28;20272;-66
2023/07/08 13:58:28;;;;;;;3.65;3.38;;;;;;;;;;5048321;28;20202;-64
2023/07/08 14:00:57;;;;;;;3.47;3.10;;;;;;;;;;5048271;28;20906;-64
2023/07/08 14:03:24;;;;;;;3.92;3.47;;;;;;;;;;5048075;28;20885;-63
2023/07/08 14:05:51;;;;;;;3.50;3.20;;;;;;;;;;5048435;28;20203;-67
2023/07/08 14:08:18;;;;;;;5.05;3.15;;;;;;;;;;5048496;28;20250;-63
2023/07/08 14:10:45;;;;;;;3.35;3.15;;;;;;;;;;5047974;28;20206;-65
2023/07/08 14:13:11;;;;;;;3.60;3.30;;;;;;;;;;5047643;28;20242;-66
2023/07/08 14:15:38;;;;;;;3.45;3.20;;;;;;;;;;5047998;28;20210;-65
2023/07/08 14:18:07;;;;;;;5.07;2.90;;;;;;;;;;5047349;28;20191;-65
2023/07/08 14:20:33;;;;;;;3.17;2.97;;;;;;;;;;5047379;28;20235;-64
2023/07/08 14:22:59;;;;;;;3.55;3.17;;;;;;;;;;5048234;28;20230;-66
2023/07/08 14:25:26;;;;;;;3.65;3.25;;;;;;;;;;5047469;28;20215;-67
2023/07/08 14:27:53;;;;;;;7.38;2.97;;;;;;;;;;5047845;28;20665;-65
2023/07/08 14:30:19;;;;;;;4.38;3.20;;;;;;;;;;5047715;28;20203;-64
2023/07/08 14:32:46;;;;;;;4.50;3.60;;;;;;;;;;5047681;28;20224;-66
2023/07/08 14:35:18;;;;;;;3.35;2.97;;;;;;;;;;5047591;28;20199;-65
2023/07/08 14:37:45;;;;;;;3.15;2.95;;;;;;;;;;5047505;28;20195;-65
2023/07/08 14:40:19;;;;;;;3.75;3.38;;;;;;;;;;5045342;28;20704;-66